sensor_id;sensor_type;location;lat;lon;timestamp;P1;durP1;ratioP1;P2;durP2;ratioP2
9384;SDS011;4732;49.340;10.886;2023-05-16T03:01:23;9.15;;;6.82;;
9384;SDS011;4732;49.340;10.886;2023-05-16T03:03:49;8.05;;;6.85;;
9384;SDS011;4732;49.340;10.886;2023-05-16T03:06:14;7.53;;;6.72;;
9384;SDS011;4732;49.340;10.886;2023-05-16T03:08:40;6.93;;;6.32;;
9384;SDS011;4732;49.340;10.886;2023-05-16T03:11:05;7.88;;;6.15;;
9384;SDS011;4732;49.340;10.886;2023-05-16T03:13:31;6.78;;;6.18;;
9384;SDS011;4732;49.340;10.886;2023-05-16T03:15:57;10.73;;;9.55;;
9384;SDS011;4732;49.340;10.886;2023-05-16T03:18:22;11.63;;;9.40;;
9384;SDS011;4732;49.340;10.886;2023-05-16T03:20:48;13.18;;;11.77;;
9384;SDS011;4732;49.340;10.886;2023-05-16T03:23:13;13.90;;;12.25;;
9384;SDS011;4732;49.340;10.886;2023-05-16T03:25:39;7.50;;;6.80;;
9384;SDS011;4732;49.340;10.886;2023-05-16T03:28:06;11.02;;;10.02;;
9384;SDS011;4732;49.340;10.886;2023-05-16T03:30:32;8.95;;;8.02;;
9384;SDS011;4732;49.340;10.886;2023-05-16T03:32:58;15.13;;;13.15;;
9384;SDS011;4732;49.340;10.886;2023-05-16T03:35:23;13.23;;;11.93;;
9384;SDS011;4732;49.340;10.886;2023-05-16T03:37:49;16.77;;;14.32;;
9384;SDS011;4732;49.340;10.886;2023-05-16T03:40:15;11.27;;;10.18;;
9384;SDS011;4732;49.340;10.886;2023-05-16T03:42:40;9.07;;;8.18;;
9384;SDS011;4732;49.340;10.886;2023-05-16T03:45:06;8.10;;;7.30;;
9384;SDS011;4732;49.340;10.886;2023-05-16T03:47:32;7.40;;;6.60;;
9384;SDS011;4732;49.340;10.886;2023-05-16T03:49:58;8.50;;;7.70;;
9384;SDS011;4732;49.340;10.886;2023-05-16T03:52:23;8.05;;;7.35;;
9384;SDS011;4732;49.340;10.886;2023-05-16T03:54:49;8.35;;;7.22;;
9384;SDS011;4732;49.340;10.886;2023-05-16T03:57:14;10.55;;;9.45;;
9384;SDS011;4732;49.340;10.886;2023-05-16T03:59:40;12.18;;;10.93;;
9384;SDS011;4732;49.340;10.886;2023-05-16T04:02:06;16.93;;;13.50;;
9384;SDS011;4732;49.340;10.886;2023-05-16T04:04:31;13.02;;;11.63;;
9384;SDS011;4732;49.340;10.886;2023-05-16T04:06:57;13.87;;;11.27;;
9384;SDS011;4732;49.340;10.886;2023-05-16T04:09:22;12.97;;;11.53;;
9384;SDS011;4732;49.340;10.886;2023-05-16T04:11:48;15.85;;;14.13;;
9384;SDS011;4732;49.340;10.886;2023-05-16T04:14:13;15.85;;;13.05;;
9384;SDS011;4732;49.340;10.886;2023-05-16T04:16:39;13.10;;;11.80;;
9384;SDS011;4732;49.340;10.886;2023-05-16T04:19:05;10.05;;;9.13;;
9384;SDS011;4732;49.340;10.886;2023-05-16T04:21:31;9.27;;;8.38;;
9384;SDS011;4732;49.340;10.886;2023-05-16T04:23:56;9.60;;;7.95;;
9384;SDS011;4732;49.340;10.886;2023-05-16T04:26:22;8.75;;;7.85;;
9384;SDS011;4732;49.340;10.886;2023-05-16T04:28:48;9.18;;;7.97;;
9384;SDS011;4732;49.340;10.886;2023-05-16T04:31:14;8.48;;;7.68;;
9384;SDS011;4732;49.340;10.886;2023-05-16T04:33:40;8.60;;;7.80;;
9384;SDS011;4732;49.340;10.886;2023-05-16T04:36:06;8.90;;;7.90;;
9384;SDS011;4732;49.340;10.886;2023-05-16T04:38:32;8.80;;;8.00;;
9384;SDS011;4732;49.340;10.886;2023-05-16T04:40:57;10.38;;;7.75;;
9384;SDS011;4732;49.340;10.886;2023-05-16T04:43:23;9.32;;;8.05;;
9384;SDS011;4732;49.340;10.886;2023-05-16T04:45:49;7.88;;;7.18;;
9384;SDS011;4732;49.340;10.886;2023-05-16T04:48:14;11.75;;;8.23;;
9384;SDS011;4732;49.340;10.886;2023-05-16T04:50:40;10.57;;;8.18;;
9384;SDS011;4732;49.340;10.886;2023-05-16T04:53:06;10.13;;;9.13;;
9384;SDS011;4732;49.340;10.886;2023-05-16T04:55:31;10.00;;;9.10;;
9384;SDS011;4732;49.340;10.886;2023-05-16T04:57:57;9.65;;;8.50;;
9384;SDS011;4732;49.340;10.886;2023-05-16T05:00:23;9.73;;;8.73;;
9384;SDS011;4732;49.340;10.886;2023-05-16T05:02:48;9.32;;;8.50;;
9384;SDS011;4732;49.340;10.886;2023-05-16T05:05:14;11.90;;;8.00;;
9384;SDS011;4732;49.340;10.886;2023-05-16T05:07:40;8.88;;;7.95;;
9384;SDS011;4732;49.340;10.886;2023-05-16T05:10:05;9.57;;;8.23;;
9384;SDS011;4732;49.340;10.886;2023-05-16T05:12:31;9.57;;;8.43;;
9384;SDS011;4732;49.340;10.886;2023-05-16T05:14:57;9.23;;;8.43;;
9384;SDS011;4732;49.340;10.886;2023-05-16T05:17:23;10.25;;;9.27;;
9384;SDS011;4732;49.340;10.886;2023-05-16T05:19:48;10.10;;;9.10;;
9384;SDS011;4732;49.340;10.886;2023-05-16T05:22:14;8.68;;;7.88;;
9384;SDS011;4732;49.340;10.886;2023-05-16T05:24:40;11.82;;;9.15;;
9384;SDS011;4732;49.340;10.886;2023-05-16T05:27:05;10.63;;;9.63;;
9384;SDS011;4732;49.340;10.886;2023-05-16T05:29:31;9.00;;;8.20;;
9384;SDS011;4732;49.340;10.886;2023-05-16T05:31:56;9.63;;;8.68;;
9384;SDS011;4732;49.340;10.886;2023-05-16T05:34:22;10.98;;;9.85;;
9384;SDS011;4732;49.340;10.886;2023-05-16T05:36:47;11.55;;;9.75;;
9384;SDS011;4732;49.340;10.886;2023-05-16T05:39:13;9.80;;;8.90;;
9384;SDS011;4732;49.340;10.886;2023-05-16T05:41:38;9.50;;;8.60;;
9384;SDS011;4732;49.340;10.886;2023-05-16T05:44:04;11.68;;;9.90;;
9384;SDS011;4732;49.340;10.886;2023-05-16T05:46:30;9.50;;;8.60;;
9384;SDS011;4732;49.340;10.886;2023-05-16T05:48:56;11.48;;;10.25;;
9384;SDS011;4732;49.340;10.886;2023-05-16T05:51:22;10.05;;;9.15;;
9384;SDS011;4732;49.340;10.886;2023-05-16T05:53:48;9.63;;;8.65;;
9384;SDS011;4732;49.340;10.886;2023-05-16T05:56:14;10.30;;;9.40;;
9384;SDS011;4732;49.340;10.886;2023-05-16T05:58:39;10.15;;;8.90;;
9384;SDS011;4732;49.340;10.886;2023-05-16T06:01:09;10.40;;;8.48;;
9384;SDS011;4732;49.340;10.886;2023-05-16T06:03:35;10.57;;;9.57;;
9384;SDS011;4732;49.340;10.886;2023-05-16T06:06:00;9.35;;;8.45;;
9384;SDS011;4732;49.340;10.886;2023-05-16T06:08:26;9.20;;;8.40;;
9384;SDS011;4732;49.340;10.886;2023-05-16T06:10:51;11.02;;;9.32;;
9384;SDS011;4732;49.340;10.886;2023-05-16T06:13:18;10.52;;;9.45;;
9384;SDS011;4732;49.340;10.886;2023-05-16T06:15:43;11.60;;;8.77;;
9384;SDS011;4732;49.340;10.886;2023-05-16T06:18:13;9.38;;;8.50;;
9384;SDS011;4732;49.340;10.886;2023-05-16T06:20:38;11.30;;;10.10;;
9384;SDS011;4732;49.340;10.886;2023-05-16T06:23:04;10.77;;;9.27;;
9384;SDS011;4732;49.340;10.886;2023-05-16T06:25:30;10.63;;;9.60;;
9384;SDS011;4732;49.340;10.886;2023-05-16T06:27:55;10.65;;;9.65;;
9384;SDS011;4732;49.340;10.886;2023-05-16T06:30:21;11.35;;;10.35;;
9384;SDS011;4732;49.340;10.886;2023-05-16T06:32:46;11.23;;;10.05;;
9384;SDS011;4732;49.340;10.886;2023-05-16T06:35:12;12.27;;;10.10;;
9384;SDS011;4732;49.340;10.886;2023-05-16T06:37:37;12.15;;;9.55;;
9384;SDS011;4732;49.340;10.886;2023-05-16T06:40:03;10.40;;;9.38;;
9384;SDS011;4732;49.340;10.886;2023-05-16T06:42:29;12.35;;;10.02;;
9384;SDS011;4732;49.340;10.886;2023-05-16T06:44:55;11.27;;;10.07;;
9384;SDS011;4732;49.340;10.886;2023-05-16T06:47:20;11.38;;;10.20;;
9384;SDS011;4732;49.340;10.886;2023-05-16T06:49:46;10.80;;;9.70;;
9384;SDS011;4732;49.340;10.886;2023-05-16T06:52:11;11.60;;;10.40;;
9384;SDS011;4732;49.340;10.886;2023-05-16T06:54:37;10.65;;;9.65;;
9384;SDS011;4732;49.340;10.886;2023-05-16T06:57:02;11.30;;;10.05;;
9384;SDS011;4732;49.340;10.886;2023-05-16T06:59:28;10.95;;;9.88;;
9384;SDS011;4732;49.340;10.886;2023-05-16T07:01:53;10.40;;;9.40;;
9384;SDS011;4732;49.340;10.886;2023-05-16T07:04:19;12.02;;;10.52;;
9384;SDS011;4732;49.340;10.886;2023-05-16T07:06:44;12.32;;;11.23;;
9384;SDS011;4732;49.340;10.886;2023-05-16T07:09:10;11.73;;;10.63;;
9384;SDS011;4732;49.340;10.886;2023-05-16T07:11:36;10.65;;;9.23;;
9384;SDS011;4732;49.340;10.886;2023-05-16T07:14:01;10.88;;;9.75;;
9384;SDS011;4732;49.340;10.886;2023-05-16T07:16:27;10.23;;;9.23;;
9384;SDS011;4732;49.340;10.886;2023-05-16T07:18:52;14.80;;;10.23;;
9384;SDS011;4732;49.340;10.886;2023-05-16T07:21:18;9.98;;;8.77;;
9384;SDS011;4732;49.340;10.886;2023-05-16T07:23:44;10.95;;;9.88;;
9384;SDS011;4732;49.340;10.886;2023-05-16T07:26:09;10.95;;;9.85;;
9384;SDS011;4732;49.340;10.886;2023-05-16T07:28:35;10.82;;;9.02;;
9384;SDS011;4732;49.340;10.886;2023-05-16T07:31:00;10.27;;;9.27;;
9384;SDS011;4732;49.340;10.886;2023-05-16T07:33:26;11.07;;;10.07;;
9384;SDS011;4732;49.340;10.886;2023-05-16T07:35:51;11.73;;;9.43;;
9384;SDS011;4732;49.340;10.886;2023-05-16T07:38:18;10.90;;;9.88;;
9384;SDS011;4732;49.340;10.886;2023-05-16T07:40:45;11.32;;;10.10;;
9384;SDS011;4732;49.340;10.886;2023-05-16T07:43:10;13.00;;;10.35;;
9384;SDS011;4732;49.340;10.886;2023-05-16T07:45:36;11.18;;;9.60;;
9384;SDS011;4732;49.340;10.886;2023-05-16T07:48:02;11.13;;;9.98;;
9384;SDS011;4732;49.340;10.886;2023-05-16T07:50:28;12.00;;;9.98;;
9384;SDS011;4732;49.340;10.886;2023-05-16T07:52:53;10.57;;;9.57;;
9384;SDS011;4732;49.340;10.886;2023-05-16T07:55:19;10.50;;;9.50;;
9384;SDS011;4732;49.340;10.886;2023-05-16T07:57:46;12.18;;;10.30;;
9384;SDS011;4732;49.340;10.886;2023-05-16T08:00:12;10.52;;;9.52;;
9384;SDS011;4732;49.340;10.886;2023-05-16T08:02:38;12.90;;;10.43;;
9384;SDS011;4732;49.340;10.886;2023-05-16T08:05:04;11.13;;;10.10;;
9384;SDS011;4732;49.340;10.886;2023-05-16T08:07:29;11.35;;;10.25;;
9384;SDS011;4732;49.340;10.886;2023-05-16T08:09:55;10.55;;;9.55;;
9384;SDS011;4732;49.340;10.886;2023-05-16T08:12:20;13.35;;;10.30;;
9384;SDS011;4732;49.340;10.886;2023-05-16T08:14:47;11.40;;;10.25;;
9384;SDS011;4732;49.340;10.886;2023-05-16T08:17:13;11.85;;;9.85;;
9384;SDS011;4732;49.340;10.886;2023-05-16T08:19:38;11.07;;;9.98;;
9384;SDS011;4732;49.340;10.886;2023-05-16T08:22:05;12.25;;;10.48;;
9384;SDS011;4732;49.340;10.886;2023-05-16T08:24:31;12.68;;;10.90;;
9384;SDS011;4732;49.340;10.886;2023-05-16T08:26:57;11.98;;;10.50;;
9384;SDS011;4732;49.340;10.886;2023-05-16T08:29:22;12.18;;;9.90;;
9384;SDS011;4732;49.340;10.886;2023-05-16T08:31:48;11.57;;;10.15;;
9384;SDS011;4732;49.340;10.886;2023-05-16T08:34:13;12.63;;;10.02;;
9384;SDS011;4732;49.340;10.886;2023-05-16T08:36:39;12.85;;;11.15;;
9384;SDS011;4732;49.340;10.886;2023-05-16T08:39:05;11.98;;;10.52;;
9384;SDS011;4732;49.340;10.886;2023-05-16T08:41:31;11.68;;;10.55;;
9384;SDS011;4732;49.340;10.886;2023-05-16T08:43:57;11.40;;;10.40;;
9384;SDS011;4732;49.340;10.886;2023-05-16T08:46:23;16.33;;;11.20;;
9384;SDS011;4732;49.340;10.886;2023-05-16T08:48:51;12.10;;;11.00;;
9384;SDS011;4732;49.340;10.886;2023-05-16T08:51:18;13.15;;;11.25;;
9384;SDS011;4732;49.340;10.886;2023-05-16T08:53:45;12.15;;;10.95;;
9384;SDS011;4732;49.340;10.886;2023-05-16T08:56:16;13.02;;;11.45;;
9384;SDS011;4732;49.340;10.886;2023-05-16T08:58:42;12.38;;;11.15;;
9384;SDS011;4732;49.340;10.886;2023-05-16T09:01:08;13.85;;;11.57;;
9384;SDS011;4732;49.340;10.886;2023-05-16T09:03:35;13.52;;;11.38;;
9384;SDS011;4732;49.340;10.886;2023-05-16T09:06:03;12.90;;;11.55;;
9384;SDS011;4732;49.340;10.886;2023-05-16T09:08:30;13.07;;;11.77;;
9384;SDS011;4732;49.340;10.886;2023-05-16T09:10:55;13.77;;;11.95;;
9384;SDS011;4732;49.340;10.886;2023-05-16T09:13:21;12.50;;;11.20;;
9384;SDS011;4732;49.340;10.886;2023-05-16T09:16:06;14.10;;;11.27;;
9384;SDS011;4732;49.340;10.886;2023-05-16T09:18:33;12.43;;;11.27;;
9384;SDS011;4732;49.340;10.886;2023-05-16T09:20:59;13.80;;;11.93;;
9384;SDS011;4732;49.340;10.886;2023-05-16T09:23:25;13.25;;;12.05;;
9384;SDS011;4732;49.340;10.886;2023-05-16T09:25:54;13.77;;;12.43;;
9384;SDS011;4732;49.340;10.886;2023-05-16T09:28:21;13.45;;;12.13;;
9384;SDS011;4732;49.340;10.886;2023-05-16T09:30:47;13.02;;;11.82;;
9384;SDS011;4732;49.340;10.886;2023-05-16T09:33:13;14.77;;;12.10;;
9384;SDS011;4732;49.340;10.886;2023-05-16T09:35:39;13.82;;;12.40;;
9384;SDS011;4732;49.340;10.886;2023-05-16T09:38:04;13.70;;;12.05;;
9384;SDS011;4732;49.340;10.886;2023-05-16T09:40:39;12.95;;;11.63;;
9384;SDS011;4732;49.340;10.886;2023-05-16T09:43:06;13.13;;;11.27;;
9384;SDS011;4732;49.340;10.886;2023-05-16T09:45:33;13.05;;;10.80;;
9384;SDS011;4732;49.340;10.886;2023-05-16T09:48:05;14.20;;;11.75;;
9384;SDS011;4732;49.340;10.886;2023-05-16T09:50:33;13.35;;;11.18;;
9384;SDS011;4732;49.340;10.886;2023-05-16T09:53:00;13.32;;;11.88;;
9384;SDS011;4732;49.340;10.886;2023-05-16T09:55:26;12.90;;;11.60;;
9384;SDS011;4732;49.340;10.886;2023-05-16T09:57:52;16.27;;;12.20;;
9384;SDS011;4732;49.340;10.886;2023-05-16T10:00:17;14.60;;;11.43;;
9384;SDS011;4732;49.340;10.886;2023-05-16T10:02:43;13.20;;;11.68;;
9384;SDS011;4732;49.340;10.886;2023-05-16T10:05:09;12.82;;;11.63;;
9384;SDS011;4732;49.340;10.886;2023-05-16T10:07:35;14.10;;;12.15;;
9384;SDS011;4732;49.340;10.886;2023-05-16T10:10:04;12.65;;;11.32;;
9384;SDS011;4732;49.340;10.886;2023-05-16T10:12:32;15.05;;;10.52;;
9384;SDS011;4732;49.340;10.886;2023-05-16T10:14:59;11.85;;;10.75;;
9384;SDS011;4732;49.340;10.886;2023-05-16T10:17:25;11.45;;;10.30;;
9384;SDS011;4732;49.340;10.886;2023-05-16T10:19:52;12.60;;;9.65;;
9384;SDS011;4732;49.340;10.886;2023-05-16T10:22:18;10.80;;;9.07;;
9384;SDS011;4732;49.340;10.886;2023-05-16T10:24:59;11.27;;;10.05;;
9384;SDS011;4732;49.340;10.886;2023-05-16T10:27:45;9.73;;;8.77;;
9384;SDS011;4732;49.340;10.886;2023-05-16T10:30:11;10.23;;;8.18;;
9384;SDS011;4732;49.340;10.886;2023-05-16T10:32:38;9.90;;;8.90;;
9384;SDS011;4732;49.340;10.886;2023-05-16T10:35:04;9.57;;;8.68;;
9384;SDS011;4732;49.340;10.886;2023-05-16T10:37:30;12.88;;;9.45;;
9384;SDS011;4732;49.340;10.886;2023-05-16T10:39:57;9.73;;;8.73;;
9384;SDS011;4732;49.340;10.886;2023-05-16T10:42:25;9.10;;;8.20;;
9384;SDS011;4732;49.340;10.886;2023-05-16T10:44:53;10.55;;;8.68;;
9384;SDS011;4732;49.340;10.886;2023-05-16T10:47:21;9.45;;;8.30;;
9384;SDS011;4732;49.340;10.886;2023-05-16T10:49:48;8.85;;;7.95;;
9384;SDS011;4732;49.340;10.886;2023-05-16T10:52:13;8.43;;;7.57;;
9384;SDS011;4732;49.340;10.886;2023-05-16T10:54:42;12.43;;;8.27;;
9384;SDS011;4732;49.340;10.886;2023-05-16T10:57:17;9.55;;;8.65;;
9384;SDS011;4732;49.340;10.886;2023-05-16T10:59:46;8.40;;;7.70;;
9384;SDS011;4732;49.340;10.886;2023-05-16T11:02:32;8.57;;;7.78;;
9384;SDS011;4732;49.340;10.886;2023-05-16T11:05:05;11.27;;;7.68;;
9384;SDS011;4732;49.340;10.886;2023-05-16T11:07:32;9.82;;;7.50;;
9384;SDS011;4732;49.340;10.886;2023-05-16T11:12:41;7.43;;;6.75;;
9384;SDS011;4732;49.340;10.886;2023-05-16T11:17:45;7.70;;;7.00;;
9384;SDS011;4732;49.340;10.886;2023-05-16T11:20:24;7.38;;;6.63;;
9384;SDS011;4732;49.340;10.886;2023-05-16T11:25:48;8.20;;;6.80;;
9384;SDS011;4732;49.340;10.886;2023-05-16T11:28:23;6.78;;;6.18;;
9384;SDS011;4732;49.340;10.886;2023-05-16T11:30:51;10.68;;;6.20;;
9384;SDS011;4732;49.340;10.886;2023-05-16T11:33:19;7.57;;;6.43;;
9384;SDS011;4732;49.340;10.886;2023-05-16T11:38:31;8.80;;;6.10;;
9384;SDS011;4732;49.340;10.886;2023-05-16T11:41:02;6.75;;;6.05;;
9384;SDS011;4732;49.340;10.886;2023-05-16T11:43:35;8.80;;;6.50;;
9384;SDS011;4732;49.340;10.886;2023-05-16T11:46:04;11.82;;;6.45;;
9384;SDS011;4732;49.340;10.886;2023-05-16T11:48:29;8.75;;;6.22;;
9384;SDS011;4732;49.340;10.886;2023-05-16T11:50:55;6.40;;;5.88;;
9384;SDS011;4732;49.340;10.886;2023-05-16T11:53:20;6.85;;;6.25;;
9384;SDS011;4732;49.340;10.886;2023-05-16T11:55:46;6.28;;;5.68;;
9384;SDS011;4732;49.340;10.886;2023-05-16T11:58:16;8.75;;;5.50;;
9384;SDS011;4732;49.340;10.886;2023-05-16T12:00:48;6.63;;;6.03;;
9384;SDS011;4732;49.340;10.886;2023-05-16T12:03:15;7.47;;;5.53;;
9384;SDS011;4732;49.340;10.886;2023-05-16T12:05:51;6.68;;;5.22;;
9384;SDS011;4732;49.340;10.886;2023-05-16T12:08:18;7.32;;;5.75;;
9384;SDS011;4732;49.340;10.886;2023-05-16T12:10:46;6.72;;;6.03;;
9384;SDS011;4732;49.340;10.886;2023-05-16T12:13:14;9.05;;;5.88;;
9384;SDS011;4732;49.340;10.886;2023-05-16T12:15:40;9.10;;;6.13;;
9384;SDS011;4732;49.340;10.886;2023-05-16T12:18:06;7.65;;;5.93;;
9384;SDS011;4732;49.340;10.886;2023-05-16T12:20:33;6.95;;;6.25;;
9384;SDS011;4732;49.340;10.886;2023-05-16T12:22:58;8.23;;;6.20;;
9384;SDS011;4732;49.340;10.886;2023-05-16T12:27:51;6.57;;;6.00;;
9384;SDS011;4732;49.340;10.886;2023-05-16T12:30:17;10.73;;;6.80;;
9384;SDS011;4732;49.340;10.886;2023-05-16T12:32:43;7.28;;;6.57;;
9384;SDS011;4732;49.340;10.886;2023-05-16T12:35:09;8.23;;;6.85;;
9384;SDS011;4732;49.340;10.886;2023-05-16T12:37:36;9.27;;;6.50;;
9384;SDS011;4732;49.340;10.886;2023-05-16T12:40:02;6.80;;;6.13;;
9384;SDS011;4732;49.340;10.886;2023-05-16T12:42:28;9.20;;;6.82;;
9384;SDS011;4732;49.340;10.886;2023-05-16T12:44:54;7.43;;;6.63;;
9384;SDS011;4732;49.340;10.886;2023-05-16T12:47:20;8.00;;;6.45;;
9384;SDS011;4732;49.340;10.886;2023-05-16T12:49:46;6.72;;;6.13;;
9384;SDS011;4732;49.340;10.886;2023-05-16T12:52:17;8.63;;;6.30;;
9384;SDS011;4732;49.340;10.886;2023-05-16T12:54:45;6.88;;;6.18;;
9384;SDS011;4732;49.340;10.886;2023-05-16T12:57:11;6.18;;;5.50;;
9384;SDS011;4732;49.340;10.886;2023-05-16T12:59:36;7.55;;;6.10;;
9384;SDS011;4732;49.340;10.886;2023-05-16T13:02:02;7.10;;;6.40;;
9384;SDS011;4732;49.340;10.886;2023-05-16T13:04:28;8.02;;;6.60;;
9384;SDS011;4732;49.340;10.886;2023-05-16T13:06:53;6.55;;;5.63;;
9384;SDS011;4732;49.340;10.886;2023-05-16T13:09:19;8.05;;;6.40;;
9384;SDS011;4732;49.340;10.886;2023-05-16T13:11:45;5.45;;;4.97;;
9384;SDS011;4732;49.340;10.886;2023-05-16T13:14:11;7.47;;;5.93;;
9384;SDS011;4732;49.340;10.886;2023-05-16T13:16:36;6.28;;;5.68;;
9384;SDS011;4732;49.340;10.886;2023-05-16T13:19:02;6.43;;;5.72;;
9384;SDS011;4732;49.340;10.886;2023-05-16T13:21:29;5.65;;;5.15;;
9384;SDS011;4732;49.340;10.886;2023-05-16T13:23:55;6.00;;;5.40;;
9384;SDS011;4732;49.340;10.886;2023-05-16T13:26:22;5.60;;;5.10;;
9384;SDS011;4732;49.340;10.886;2023-05-16T13:28:47;7.20;;;5.70;;
9384;SDS011;4732;49.340;10.886;2023-05-16T13:31:16;6.03;;;5.28;;
9384;SDS011;4732;49.340;10.886;2023-05-16T13:33:42;6.78;;;5.30;;
9384;SDS011;4732;49.340;10.886;2023-05-16T13:36:08;7.38;;;5.80;;
9384;SDS011;4732;49.340;10.886;2023-05-16T13:38:33;8.00;;;5.40;;
9384;SDS011;4732;49.340;10.886;2023-05-16T13:41:00;5.80;;;5.07;;
9384;SDS011;4732;49.340;10.886;2023-05-16T13:43:25;8.30;;;4.78;;
9384;SDS011;4732;49.340;10.886;2023-05-16T13:45:51;5.82;;;5.25;;
9384;SDS011;4732;49.340;10.886;2023-05-16T13:48:16;6.47;;;4.70;;
9384;SDS011;4732;49.340;10.886;2023-05-16T13:50:43;5.85;;;5.25;;
9384;SDS011;4732;49.340;10.886;2023-05-16T13:53:08;6.20;;;4.70;;
9384;SDS011;4732;49.340;10.886;2023-05-16T13:55:34;6.70;;;4.97;;
9384;SDS011;4732;49.340;10.886;2023-05-16T13:58:00;8.02;;;5.00;;
9384;SDS011;4732;49.340;10.886;2023-05-16T14:00:26;9.25;;;4.80;;
9384;SDS011;4732;49.340;10.886;2023-05-16T14:02:52;5.15;;;3.78;;
9384;SDS011;4732;49.340;10.886;2023-05-16T14:05:17;4.57;;;4.18;;
9384;SDS011;4732;49.340;10.886;2023-05-16T14:07:43;4.82;;;4.32;;
9384;SDS011;4732;49.340;10.886;2023-05-16T14:10:08;4.32;;;3.92;;
9384;SDS011;4732;49.340;10.886;2023-05-16T14:12:34;4.93;;;4.38;;
9384;SDS011;4732;49.340;10.886;2023-05-16T14:15:00;4.47;;;4.07;;
9384;SDS011;4732;49.340;10.886;2023-05-16T14:17:25;4.53;;;4.13;;
9384;SDS011;4732;49.340;10.886;2023-05-16T14:19:51;6.18;;;4.20;;
9384;SDS011;4732;49.340;10.886;2023-05-16T14:22:17;5.28;;;3.80;;
9384;SDS011;4732;49.340;10.886;2023-05-16T14:24:43;8.45;;;3.50;;
9384;SDS011;4732;49.340;10.886;2023-05-16T14:27:08;4.80;;;3.50;;
9384;SDS011;4732;49.340;10.886;2023-05-16T14:29:34;4.35;;;3.92;;
9384;SDS011;4732;49.340;10.886;2023-05-16T14:31:59;5.72;;;3.67;;
9384;SDS011;4732;49.340;10.886;2023-05-16T14:34:25;4.18;;;3.63;;
9384;SDS011;4732;49.340;10.886;2023-05-16T14:36:50;6.78;;;3.25;;
9384;SDS011;4732;49.340;10.886;2023-05-16T14:39:16;3.80;;;2.92;;
9384;SDS011;4732;49.340;10.886;2023-05-16T14:41:41;3.42;;;2.60;;
9384;SDS011;4732;49.340;10.886;2023-05-16T14:44:07;3.50;;;2.92;;
9384;SDS011;4732;49.340;10.886;2023-05-16T14:46:33;4.15;;;2.90;;
9384;SDS011;4732;49.340;10.886;2023-05-16T14:48:58;4.38;;;2.90;;
9384;SDS011;4732;49.340;10.886;2023-05-16T14:51:24;4.22;;;2.67;;
9384;SDS011;4732;49.340;10.886;2023-05-16T14:53:49;5.90;;;2.53;;
9384;SDS011;4732;49.340;10.886;2023-05-16T14:56:14;3.38;;;2.72;;
9384;SDS011;4732;49.340;10.886;2023-05-16T14:58:43;2.97;;;2.67;;
9384;SDS011;4732;49.340;10.886;2023-05-16T15:01:08;3.92;;;2.60;;
9384;SDS011;4732;49.340;10.886;2023-05-16T15:03:35;3.38;;;2.45;;
9384;SDS011;4732;49.340;10.886;2023-05-16T15:06:01;5.82;;;2.63;;
9384;SDS011;4732;49.340;10.886;2023-05-16T15:08:26;3.42;;;2.45;;
9384;SDS011;4732;49.340;10.886;2023-05-16T15:10:52;7.22;;;3.45;;
9384;SDS011;4732;49.340;10.886;2023-05-16T15:13:17;2.80;;;2.25;;
9384;SDS011;4732;49.340;10.886;2023-05-16T15:15:43;3.28;;;2.45;;
9384;SDS011;4732;49.340;10.886;2023-05-16T15:18:08;4.30;;;2.22;;
9384;SDS011;4732;49.340;10.886;2023-05-16T15:20:35;2.60;;;2.13;;
9384;SDS011;4732;49.340;10.886;2023-05-16T15:23:01;2.42;;;2.20;;
9384;SDS011;4732;49.340;10.886;2023-05-16T15:25:27;4.28;;;2.53;;
9384;SDS011;4732;49.340;10.886;2023-05-16T15:27:53;2.63;;;2.42;;
9384;SDS011;4732;49.340;10.886;2023-05-16T15:30:19;2.55;;;2.35;;
9384;SDS011;4732;49.340;10.886;2023-05-16T15:32:44;2.88;;;1.90;;
9384;SDS011;4732;49.340;10.886;2023-05-16T15:35:09;3.50;;;2.70;;
9384;SDS011;4732;49.340;10.886;2023-05-16T15:37:36;2.28;;;1.92;;
9384;SDS011;4732;49.340;10.886;2023-05-16T15:40:01;3.47;;;2.78;;
9384;SDS011;4732;49.340;10.886;2023-05-16T15:42:28;3.85;;;2.60;;
9384;SDS011;4732;49.340;10.886;2023-05-16T15:44:54;3.47;;;2.67;;
9384;SDS011;4732;49.340;10.886;2023-05-16T15:47:19;2.67;;;2.13;;
9384;SDS011;4732;49.340;10.886;2023-05-16T15:49:45;7.25;;;2.10;;
9384;SDS011;4732;49.340;10.886;2023-05-16T15:52:11;2.00;;;1.80;;
9384;SDS011;4732;49.340;10.886;2023-05-16T15:54:36;2.55;;;2.25;;
9384;SDS011;4732;49.340;10.886;2023-05-16T15:57:02;2.78;;;1.90;;
9384;SDS011;4732;49.340;10.886;2023-05-16T15:59:27;2.22;;;2.00;;
9384;SDS011;4732;49.340;10.886;2023-05-16T16:01:53;3.90;;;2.15;;
9384;SDS011;4732;49.340;10.886;2023-05-16T16:04:19;3.47;;;2.00;;
9384;SDS011;4732;49.340;10.886;2023-05-16T16:06:45;2.47;;;1.70;;
9384;SDS011;4732;49.340;10.886;2023-05-16T16:09:10;3.22;;;2.00;;
9384;SDS011;4732;49.340;10.886;2023-05-16T16:11:36;4.60;;;1.95;;
9384;SDS011;4732;49.340;10.886;2023-05-16T16:14:01;3.60;;;1.90;;
9384;SDS011;4732;49.340;10.886;2023-05-16T16:16:28;3.05;;;2.03;;
9384;SDS011;4732;49.340;10.886;2023-05-16T16:18:53;2.35;;;2.10;;
9384;SDS011;4732;49.340;10.886;2023-05-16T16:21:19;3.95;;;2.20;;
9384;SDS011;4732;49.340;10.886;2023-05-16T16:23:44;3.35;;;2.35;;
9384;SDS011;4732;49.340;10.886;2023-05-16T16:26:10;2.47;;;2.28;;
9384;SDS011;4732;49.340;10.886;2023-05-16T16:28:35;3.05;;;2.17;;
9384;SDS011;4732;49.340;10.886;2023-05-16T16:31:01;2.95;;;2.10;;
9384;SDS011;4732;49.340;10.886;2023-05-16T16:36:09;4.30;;;2.38;;
9384;SDS011;4732;49.340;10.886;2023-05-16T16:38:35;4.07;;;2.00;;
9384;SDS011;4732;49.340;10.886;2023-05-16T16:41:00;3.05;;;2.28;;
9384;SDS011;4732;49.340;10.886;2023-05-16T16:43:26;4.72;;;2.40;;
9384;SDS011;4732;49.340;10.886;2023-05-16T16:45:51;6.05;;;2.20;;
9384;SDS011;4732;49.340;10.886;2023-05-16T16:48:17;3.42;;;2.35;;
9384;SDS011;4732;49.340;10.886;2023-05-16T16:50:42;4.68;;;2.15;;
9384;SDS011;4732;49.340;10.886;2023-05-16T16:53:08;3.58;;;1.98;;
9384;SDS011;4732;49.340;10.886;2023-05-16T16:55:35;3.38;;;2.30;;
9384;SDS011;4732;49.340;10.886;2023-05-16T16:58:01;6.07;;;2.20;;
9384;SDS011;4732;49.340;10.886;2023-05-16T17:00:27;5.03;;;1.90;;
9384;SDS011;4732;49.340;10.886;2023-05-16T17:02:53;3.25;;;1.85;;
9384;SDS011;4732;49.340;10.886;2023-05-16T17:05:18;2.63;;;1.88;;
9384;SDS011;4732;49.340;10.886;2023-05-16T17:07:44;2.67;;;1.65;;
9384;SDS011;4732;49.340;10.886;2023-05-16T17:10:09;2.92;;;2.00;;
9384;SDS011;4732;49.340;10.886;2023-05-16T17:12:35;4.60;;;1.90;;
9384;SDS011;4732;49.340;10.886;2023-05-16T17:15:08;3.90;;;2.00;;
9384;SDS011;4732;49.340;10.886;2023-05-16T17:17:34;3.58;;;1.92;;
9384;SDS011;4732;49.340;10.886;2023-05-16T17:19:59;3.95;;;2.10;;
9384;SDS011;4732;49.340;10.886;2023-05-16T17:22:29;4.13;;;2.00;;
9384;SDS011;4732;49.340;10.886;2023-05-16T17:24:55;3.58;;;2.08;;
9384;SDS011;4732;49.340;10.886;2023-05-16T17:27:20;6.25;;;2.00;;
9384;SDS011;4732;49.340;10.886;2023-05-16T17:29:46;4.25;;;2.22;;
9384;SDS011;4732;49.340;10.886;2023-05-16T17:32:11;3.70;;;2.22;;
9384;SDS011;4732;49.340;10.886;2023-05-16T17:34:37;3.55;;;2.00;;
9384;SDS011;4732;49.340;10.886;2023-05-16T17:37:02;2.45;;;1.83;;
9384;SDS011;4732;49.340;10.886;2023-05-16T17:39:28;2.95;;;1.95;;
9384;SDS011;4732;49.340;10.886;2023-05-16T17:41:53;2.33;;;1.92;;
9384;SDS011;4732;49.340;10.886;2023-05-16T17:44:20;3.17;;;2.03;;
9384;SDS011;4732;49.340;10.886;2023-05-16T17:46:46;1.83;;;1.60;;
9384;SDS011;4732;49.340;10.886;2023-05-16T17:49:11;4.70;;;2.00;;
9384;SDS011;4732;49.340;10.886;2023-05-16T17:51:50;3.83;;;1.92;;
9384;SDS011;4732;49.340;10.886;2023-05-16T17:54:17;3.78;;;1.80;;
9384;SDS011;4732;49.340;10.886;2023-05-16T17:56:47;2.83;;;1.73;;
9384;SDS011;4732;49.340;10.886;2023-05-16T17:59:14;4.18;;;2.10;;
9384;SDS011;4732;49.340;10.886;2023-05-16T18:01:41;5.65;;;2.20;;
9384;SDS011;4732;49.340;10.886;2023-05-16T18:04:07;2.88;;;2.00;;